createdAt,value
2017-12-01T00:01:34.386Z,2.17
2017-12-01T00:04:02.114Z,2.20
2017-12-01T00:06:39.236Z,2.23
2017-12-01T00:09:06.704Z,2.24
2017-12-01T00:11:34.162Z,2.24
2017-12-01T00:14:01.689Z,2.23
2017-12-01T00:16:29.196Z,2.23
2017-12-01T00:18:56.677Z,2.25
2017-12-01T00:21:24.167Z,2.26
2017-12-01T00:23:51.730Z,2.30
2017-12-01T00:26:19.196Z,2.30
2017-12-01T00:28:46.676Z,2.27
2017-12-01T00:31:14.198Z,2.28
2017-12-01T00:33:41.655Z,2.26
2017-12-01T00:36:09.137Z,2.27
2017-12-01T00:38:36.670Z,2.26
2017-12-01T00:41:04.196Z,2.27
2017-12-01T00:43:31.633Z,2.25
2017-12-01T00:45:59.088Z,2.22
2017-12-01T00:48:26.540Z,2.23
2017-12-01T00:50:54.038Z,2.21
2017-12-01T00:53:21.535Z,2.18
2017-12-01T00:55:48.972Z,2.18
2017-12-01T00:58:16.655Z,2.20
2017-12-01T01:00:44.138Z,2.22
2017-12-01T01:03:11.580Z,2.20
2017-12-01T01:05:39.038Z,2.18
2017-12-01T01:08:06.563Z,2.13
2017-12-01T01:10:34.024Z,2.08
2017-12-01T01:13:01.585Z,2.05
2017-12-01T01:15:29.811Z,2.07
2017-12-01T01:17:57.270Z,2.03
2017-12-01T01:20:24.724Z,2.02
2017-12-01T01:22:52.178Z,2.01
2017-12-01T01:25:19.640Z,2.04
2017-12-01T01:27:47.089Z,2.01
2017-12-01T01:30:14.546Z,2.00
2017-12-01T01:32:42.197Z,1.99
2017-12-01T01:35:09.647Z,2.01
2017-12-01T01:37:37.096Z,2.00
2017-12-01T01:40:04.634Z,2.03
2017-12-01T01:42:32.111Z,1.99
2017-12-01T01:44:59.578Z,1.98
2017-12-01T01:47:36.684Z,2.01
2017-12-01T01:50:04.188Z,2.04
2017-12-01T01:52:31.706Z,2.01
2017-12-01T01:54:59.529Z,1.95
2017-12-01T01:57:26.997Z,1.92
2017-12-01T01:59:54.459Z,1.92
2017-12-01T02:02:21.926Z,1.92
2017-12-01T02:04:49.397Z,1.97
2017-12-01T02:07:16.916Z,1.96
2017-12-01T02:09:44.351Z,1.90
2017-12-01T02:12:11.839Z,1.87
2017-12-01T02:14:39.314Z,1.89
2017-12-01T02:17:06.761Z,1.89
2017-12-01T02:19:34.218Z,1.86
2017-12-01T02:22:01.694Z,1.84
2017-12-01T02:24:29.138Z,1.82
2017-12-01T02:26:56.612Z,1.80
2017-12-01T02:29:24.176Z,1.83
2017-12-01T02:31:51.660Z,1.85
2017-12-01T02:34:19.148Z,1.83
2017-12-01T02:36:46.638Z,1.84
2017-12-01T02:39:14.090Z,1.81
2017-12-01T02:41:41.605Z,1.77
2017-12-01T02:44:09.034Z,1.76
2017-12-01T02:46:36.490Z,1.75
2017-12-01T02:49:03.932Z,1.76
2017-12-01T02:51:31.451Z,1.73
2017-12-01T02:53:58.893Z,1.73
2017-12-01T02:56:26.373Z,1.73
2017-12-01T02:58:53.884Z,1.75
2017-12-01T03:01:21.310Z,1.74
2017-12-01T03:03:48.758Z,1.72
2017-12-01T03:06:17.103Z,1.73
2017-12-01T03:08:45.437Z,1.75
2017-12-01T03:11:12.887Z,1.76
2017-12-01T03:13:40.330Z,1.80
2017-12-01T03:16:07.817Z,1.82
2017-12-01T03:18:35.330Z,1.79
2017-12-01T03:21:02.789Z,1.76
2017-12-01T03:23:30.327Z,1.73
2017-12-01T03:25:57.790Z,1.70
2017-12-01T03:28:30.274Z,1.63
2017-12-01T03:30:57.782Z,1.59
2017-12-01T03:33:25.224Z,1.56
2017-12-01T03:35:52.692Z,1.56
2017-12-01T03:38:20.146Z,1.58
2017-12-01T03:40:47.645Z,1.57
2017-12-01T03:43:15.098Z,1.56
2017-12-01T03:45:42.574Z,1.57
2017-12-01T03:48:10.091Z,1.58
2017-12-01T03:50:37.539Z,1.57
2017-12-01T03:53:04.976Z,1.55
2017-12-01T03:55:32.507Z,1.57
2017-12-01T04:01:12.582Z,1.55
2017-12-01T04:03:40.048Z,1.54
2017-12-01T04:06:07.516Z,1.46
2017-12-01T04:08:35.019Z,1.47
2017-12-01T04:11:02.470Z,1.48
2017-12-01T04:13:29.977Z,1.46
2017-12-01T04:15:57.522Z,1.38
2017-12-01T04:18:25.008Z,1.36
2017-12-01T04:20:52.465Z,1.35
2017-12-01T04:23:19.994Z,1.38
2017-12-01T04:25:47.463Z,1.44
2017-12-01T04:28:14.958Z,1.37
2017-12-01T04:30:42.497Z,1.35
2017-12-01T04:33:09.936Z,1.35
2017-12-01T04:35:37.483Z,1.35
2017-12-01T04:38:04.972Z,1.33
2017-12-01T04:40:32.432Z,1.35
2017-12-01T04:43:00.160Z,1.37
2017-12-01T04:45:27.691Z,1.31
2017-12-01T04:47:55.152Z,1.25
2017-12-01T04:50:22.693Z,1.22
2017-12-01T04:52:50.478Z,1.22
2017-12-01T04:55:17.950Z,1.21
2017-12-01T04:57:45.471Z,1.23
2017-12-01T05:00:13.005Z,1.25
2017-12-01T05:02:40.503Z,1.25
2017-12-01T05:05:07.985Z,1.28
2017-12-01T05:07:49.788Z,1.28
2017-12-01T05:10:17.382Z,1.35
2017-12-01T05:12:44.853Z,1.35
2017-12-01T05:15:12.353Z,1.37
2017-12-01T05:17:39.948Z,1.42
2017-12-01T05:20:07.464Z,1.38
2017-12-01T05:22:34.974Z,1.29
2017-12-01T05:25:02.522Z,1.29
2017-12-01T05:27:30.067Z,1.29
2017-12-01T05:29:57.545Z,1.32
2017-12-01T05:32:25.080Z,1.30
2017-12-01T05:34:52.523Z,1.32
2017-12-01T05:37:19.998Z,1.36
2017-12-01T05:39:47.824Z,1.37
2017-12-01T05:42:15.327Z,1.29
2017-12-01T05:44:42.852Z,1.27
2017-12-01T05:47:10.306Z,1.24
2017-12-01T05:49:37.884Z,1.24
2017-12-01T05:52:05.395Z,1.24
2017-12-01T05:54:32.882Z,1.27
2017-12-01T05:57:00.390Z,1.28
2017-12-01T05:59:27.868Z,1.33
2017-12-01T06:01:55.390Z,1.36
2017-12-01T06:04:22.856Z,1.41
2017-12-01T06:06:50.308Z,1.47
2017-12-01T06:09:17.819Z,1.53
2017-12-01T06:11:45.281Z,1.56
2017-12-01T06:14:12.756Z,1.52
2017-12-01T06:16:40.289Z,1.54
2017-12-01T06:19:07.876Z,1.51
2017-12-01T06:21:35.639Z,1.59
2017-12-01T06:24:03.113Z,1.61
2017-12-01T06:26:30.572Z,1.58
2017-12-01T06:28:58.039Z,1.58
2017-12-01T06:31:25.536Z,1.59
2017-12-01T06:33:53.035Z,1.61
2017-12-01T06:36:20.521Z,1.64
2017-12-01T06:38:47.987Z,1.63
2017-12-01T06:41:15.433Z,1.63
2017-12-01T06:43:42.973Z,1.64
2017-12-01T06:46:10.432Z,1.65
2017-12-01T06:48:37.888Z,1.64
2017-12-01T06:51:05.496Z,1.60
2017-12-01T06:53:32.966Z,1.61
2017-12-01T06:56:00.462Z,1.62
2017-12-01T06:58:27.939Z,1.65
2017-12-01T07:00:55.531Z,1.61
2017-12-01T07:03:23.041Z,1.65
2017-12-01T07:05:50.608Z,1.63
2017-12-01T07:08:18.046Z,1.64
2017-12-01T07:10:45.516Z,1.68
2017-12-01T07:13:13.011Z,1.65
2017-12-01T07:15:40.455Z,1.73
2017-12-01T07:18:22.210Z,1.75
2017-12-01T07:20:49.749Z,1.69
2017-12-01T07:23:17.206Z,1.68
2017-12-01T07:25:44.718Z,1.69
2017-12-01T07:28:12.208Z,1.71
2017-12-01T07:30:39.695Z,1.76
2017-12-01T07:33:07.266Z,1.78
2017-12-01T07:35:34.722Z,1.81
2017-12-01T07:38:02.237Z,1.82
2017-12-01T07:40:29.776Z,1.89
2017-12-01T07:42:57.216Z,1.93
2017-12-01T07:45:24.777Z,1.90
2017-12-01T07:47:52.223Z,1.93
2017-12-01T07:50:19.686Z,1.94
2017-12-01T07:52:47.144Z,1.93
2017-12-01T07:55:14.617Z,1.94
2017-12-01T07:57:42.140Z,1.97
2017-12-01T08:00:09.739Z,2.01
2017-12-01T08:02:37.208Z,2.08
2017-12-01T08:05:04.718Z,2.10
2017-12-01T08:10:24.376Z,2.19
2017-12-01T08:12:51.925Z,2.27
2017-12-01T08:15:19.520Z,2.25
2017-12-01T08:17:46.985Z,2.27
2017-12-01T08:20:18.396Z,2.32
2017-12-01T08:22:52.853Z,2.40
2017-12-01T08:25:25.268Z,2.47
2017-12-01T08:27:52.815Z,2.56
2017-12-01T08:30:20.300Z,2.63
2017-12-01T08:32:48.047Z,2.67
2017-12-01T08:35:15.547Z,2.63
2017-12-01T08:37:43.007Z,2.66
2017-12-01T08:40:10.472Z,2.79
2017-12-01T08:42:37.931Z,2.84
2017-12-01T08:45:05.637Z,2.85
2017-12-01T08:47:38.141Z,2.92
2017-12-01T08:50:05.657Z,2.92
2017-12-01T08:52:33.337Z,2.99
2017-12-01T08:55:00.860Z,3.02
2017-12-01T08:57:28.332Z,2.95
2017-12-01T08:59:55.787Z,2.96
2017-12-01T09:02:23.245Z,2.93
2017-12-01T09:04:50.711Z,2.94
2017-12-01T09:07:18.256Z,2.97
2017-12-01T09:09:45.813Z,3.07
2017-12-01T09:12:13.271Z,3.11
2017-12-01T09:14:40.822Z,3.21
2017-12-01T09:17:08.295Z,3.28
2017-12-01T09:19:35.812Z,3.35
2017-12-01T09:22:03.338Z,3.47
2017-12-01T09:24:30.879Z,3.48
2017-12-01T09:26:58.352Z,3.48
2017-12-01T09:29:25.813Z,3.51
2017-12-01T09:31:53.266Z,3.38
2017-12-01T09:34:20.790Z,3.26
2017-12-01T09:36:48.252Z,3.22
2017-12-01T09:39:15.710Z,3.25
2017-12-01T09:41:43.174Z,3.19
2017-12-01T09:44:10.666Z,3.18
2017-12-01T09:46:38.182Z,3.23
2017-12-01T09:49:05.659Z,3.23
2017-12-01T09:51:33.165Z,3.09
2017-12-01T09:54:00.685Z,3.05
2017-12-01T09:56:28.216Z,3.11
2017-12-01T09:58:56.590Z,3.01
2017-12-01T10:01:24.389Z,2.92
2017-12-01T10:03:51.896Z,2.88
2017-12-01T10:06:19.398Z,2.87
2017-12-01T10:08:46.919Z,2.94
2017-12-01T10:11:14.423Z,3.01
2017-12-01T10:13:42.100Z,3.07
2017-12-01T10:16:09.855Z,3.16
2017-12-01T10:18:37.332Z,3.27
2017-12-01T10:21:04.912Z,3.44
2017-12-01T10:23:32.414Z,3.57
2017-12-01T10:26:01.991Z,3.71
2017-12-01T10:28:29.599Z,3.69
2017-12-01T10:30:57.078Z,3.76
2017-12-01T10:33:24.658Z,3.82
2017-12-01T10:35:52.163Z,3.71
2017-12-01T10:38:19.652Z,3.67
2017-12-01T10:40:47.182Z,3.60
2017-12-01T10:43:14.718Z,3.52
2017-12-01T10:45:42.267Z,3.45
2017-12-01T10:48:12.123Z,3.41
2017-12-01T10:50:39.660Z,3.40
2017-12-01T10:53:07.534Z,3.36
2017-12-01T10:55:36.021Z,3.43
2017-12-01T10:58:17.796Z,3.49
2017-12-01T11:00:45.342Z,3.51
2017-12-01T11:03:12.833Z,3.48
2017-12-01T11:05:40.812Z,3.46
2017-12-01T11:08:08.531Z,3.46
2017-12-01T11:10:36.042Z,3.49
2017-12-01T11:13:03.541Z,3.49
2017-12-01T11:15:31.118Z,3.44
2017-12-01T11:17:58.629Z,3.46
2017-12-01T11:20:26.117Z,3.43
2017-12-01T11:22:53.660Z,3.45
2017-12-01T11:25:22.532Z,3.37
2017-12-01T11:27:50.391Z,3.36
2017-12-01T11:30:18.654Z,3.36
2017-12-01T11:32:46.239Z,3.29
2017-12-01T11:35:13.821Z,3.35
2017-12-01T11:37:46.301Z,3.37
2017-12-01T11:40:13.801Z,3.35
2017-12-01T11:42:41.476Z,3.41
2017-12-01T11:45:09.094Z,3.44
2017-12-01T11:47:36.648Z,3.48
2017-12-01T11:50:04.265Z,3.49
2017-12-01T11:52:31.794Z,3.44
2017-12-01T11:54:59.278Z,3.43
2017-12-01T11:57:26.817Z,3.42
2017-12-01T11:59:54.425Z,3.39
2017-12-01T12:02:21.961Z,3.43
2017-12-01T12:04:49.824Z,3.37
2017-12-01T12:07:17.364Z,3.36
2017-12-01T12:09:44.905Z,3.35
2017-12-01T12:12:12.505Z,3.36
2017-12-01T12:14:40.237Z,3.39
2017-12-01T12:17:07.825Z,3.38
2017-12-01T12:19:35.698Z,3.40
2017-12-01T12:22:03.481Z,3.46
2017-12-01T12:24:31.121Z,3.53
2017-12-01T12:26:58.790Z,3.55
2017-12-01T12:29:26.515Z,3.53
2017-12-01T12:31:54.978Z,3.55
2017-12-01T12:34:23.523Z,3.62
2017-12-01T12:36:56.968Z,3.62
2017-12-01T12:39:24.593Z,3.63
2017-12-01T12:41:54.179Z,3.68
2017-12-01T12:44:21.835Z,3.69
2017-12-01T12:47:05.225Z,3.70
2017-12-01T12:49:32.818Z,3.65
2017-12-01T12:52:05.005Z,3.51
2017-12-01T12:54:32.865Z,3.45
2017-12-01T12:57:00.435Z,3.39
2017-12-01T12:59:28.091Z,3.38
2017-12-01T13:01:55.610Z,3.29
2017-12-01T13:04:23.105Z,3.35
2017-12-01T13:06:56.411Z,3.42
2017-12-01T13:09:23.962Z,3.41
2017-12-01T13:11:51.919Z,3.42
2017-12-01T13:14:19.405Z,3.43
2017-12-01T13:16:47.144Z,3.43
2017-12-01T13:19:15.404Z,3.44
2017-12-01T13:21:43.252Z,3.48
2017-12-01T13:24:10.745Z,3.48
2017-12-01T13:26:57.783Z,3.49
2017-12-01T13:29:25.387Z,3.48
2017-12-01T13:31:53.194Z,3.44
2017-12-01T13:34:20.905Z,3.43
2017-12-01T13:39:50.693Z,3.42
2017-12-01T13:42:18.141Z,3.47
2017-12-01T13:44:45.665Z,3.49
2017-12-01T13:47:27.377Z,3.47
2017-12-01T13:49:54.861Z,3.44
2017-12-01T13:52:22.333Z,3.50
2017-12-01T13:54:50.606Z,3.53
2017-12-01T14:00:12.195Z,3.48
2017-12-01T14:02:39.748Z,3.45
2017-12-01T14:05:07.280Z,3.47
2017-12-01T14:07:35.724Z,3.52
2017-12-01T14:10:03.290Z,3.55
2017-12-01T14:12:31.104Z,3.48
2017-12-01T14:14:59.155Z,3.41
2017-12-01T14:17:27.404Z,3.35
2017-12-01T14:19:54.865Z,3.35
2017-12-01T14:22:22.372Z,3.35
2017-12-01T14:24:49.921Z,3.33
2017-12-01T14:27:17.661Z,3.34
2017-12-01T14:29:46.218Z,3.33
2017-12-01T14:32:13.864Z,3.32
2017-12-01T14:34:42.227Z,3.30
2017-12-01T14:40:02.615Z,3.32
2017-12-01T14:42:30.189Z,3.36
2017-12-01T14:44:58.159Z,3.32
2017-12-01T14:47:25.826Z,3.28
2017-12-01T14:49:53.378Z,3.28
2017-12-01T14:52:21.068Z,3.30
2017-12-01T14:54:48.586Z,3.30
2017-12-01T14:57:16.096Z,3.32
2017-12-01T14:59:43.609Z,3.30
2017-12-01T15:02:11.314Z,3.33
2017-12-01T15:04:39.079Z,3.42
2017-12-01T15:07:06.535Z,3.45
2017-12-01T15:09:34.014Z,3.41
2017-12-01T15:12:01.537Z,3.33
2017-12-01T15:14:29.680Z,3.29
2017-12-01T15:16:57.226Z,3.25
2017-12-01T15:19:24.788Z,3.20
2017-12-01T15:21:52.244Z,3.20
2017-12-01T15:24:21.507Z,3.15
2017-12-01T15:26:49.125Z,3.16
2017-12-01T15:29:17.314Z,3.17
2017-12-01T15:31:48.830Z,3.18
2017-12-01T15:34:17.152Z,3.18
2017-12-01T15:39:28.055Z,3.18
2017-12-01T15:41:55.872Z,3.18
2017-12-01T15:44:23.662Z,3.18
2017-12-01T15:46:56.058Z,3.15
2017-12-01T15:49:23.598Z,3.15
2017-12-01T15:51:53.761Z,3.15
2017-12-01T15:54:22.111Z,3.14
2017-12-01T15:56:49.707Z,3.15
2017-12-01T15:59:17.553Z,3.13
2017-12-01T16:01:45.358Z,3.15
2017-12-01T16:04:13.787Z,3.15
2017-12-01T16:06:41.274Z,3.16
2017-12-01T16:09:09.807Z,3.17
2017-12-01T16:11:37.612Z,3.14
2017-12-01T16:14:05.474Z,3.15
2017-12-01T16:16:33.718Z,3.12
2017-12-01T16:19:01.988Z,3.12
2017-12-01T16:24:01.369Z,3.13
2017-12-01T16:26:28.899Z,3.13
2017-12-01T16:28:56.652Z,3.14
2017-12-01T16:31:24.376Z,3.15
2017-12-01T16:33:52.639Z,3.14
2017-12-01T16:36:20.350Z,3.14
2017-12-01T16:38:57.685Z,3.18
2017-12-01T16:41:25.248Z,3.19
2017-12-01T16:43:53.874Z,3.28
2017-12-01T16:46:21.379Z,3.29
2017-12-01T16:48:48.840Z,3.25
2017-12-01T16:51:17.024Z,3.21
2017-12-01T16:53:44.516Z,3.17
2017-12-01T16:56:12.011Z,3.16
2017-12-01T16:58:39.608Z,3.16
2017-12-01T17:01:08.689Z,3.15
2017-12-01T17:03:36.304Z,3.17
2017-12-01T17:06:04.283Z,3.16
2017-12-01T17:08:32.346Z,3.17
2017-12-01T17:11:00.070Z,3.19
2017-12-01T17:13:28.464Z,3.19
2017-12-01T17:15:56.146Z,3.19
2017-12-01T17:18:23.843Z,3.22
2017-12-01T17:20:53.205Z,3.19
2017-12-01T17:23:24.957Z,3.18
2017-12-01T17:25:53.924Z,3.20
2017-12-01T17:28:21.574Z,3.21
2017-12-01T17:30:50.261Z,3.21
2017-12-01T17:33:19.003Z,3.20
2017-12-01T17:35:46.625Z,3.18
2017-12-01T17:38:24.952Z,3.16
2017-12-01T17:40:52.885Z,3.18
2017-12-01T17:43:20.669Z,3.19
2017-12-01T17:45:48.233Z,3.19
2017-12-01T17:48:15.979Z,3.21
2017-12-01T17:50:44.475Z,3.22
2017-12-01T17:53:12.421Z,3.23
2017-12-01T17:55:40.026Z,3.22
2017-12-01T17:58:09.283Z,3.21
2017-12-01T18:00:37.001Z,3.21
2017-12-01T18:03:04.717Z,3.19
2017-12-01T18:05:32.629Z,3.18
2017-12-01T18:08:00.106Z,3.17
2017-12-01T18:10:27.591Z,3.17
2017-12-01T18:12:57.463Z,3.16
2017-12-01T18:15:24.976Z,3.18
2017-12-01T18:17:53.053Z,3.17
2017-12-01T18:20:21.934Z,3.16
2017-12-01T18:22:49.810Z,3.16
2017-12-01T18:25:19.268Z,3.17
2017-12-01T18:30:18.930Z,3.22
2017-12-01T18:32:47.304Z,3.24
2017-12-01T18:35:14.924Z,3.27
2017-12-01T18:37:42.574Z,3.26
2017-12-01T18:40:10.987Z,3.26
2017-12-01T18:42:38.768Z,3.24
2017-12-01T18:45:06.276Z,3.24
2017-12-01T18:50:06.284Z,3.25
2017-12-01T18:52:34.729Z,3.24
2017-12-01T18:55:02.285Z,3.25
2017-12-01T19:00:04.791Z,3.27
2017-12-01T19:02:34.710Z,3.30
2017-12-01T19:05:02.273Z,3.32
2017-12-01T19:10:31.899Z,3.37
2017-12-01T19:13:00.369Z,3.37
2017-12-01T19:15:28.028Z,3.37
2017-12-01T19:17:55.552Z,3.36
2017-12-01T19:20:23.219Z,3.37
2017-12-01T19:22:51.721Z,3.36
2017-12-01T19:25:19.499Z,3.36
2017-12-01T19:33:32.484Z,3.40
2017-12-01T19:36:00.128Z,3.41
2017-12-01T19:38:33.555Z,3.41
2017-12-01T19:41:02.049Z,3.43
2017-12-01T19:46:02.815Z,3.44
2017-12-01T19:48:33.810Z,3.43
2017-12-01T19:51:01.578Z,3.40
2017-12-01T19:53:29.122Z,3.41
2017-12-01T19:55:56.607Z,3.39
2017-12-01T19:58:24.206Z,3.40
2017-12-01T20:00:51.972Z,3.38
2017-12-01T20:03:19.778Z,3.38
2017-12-01T20:05:47.548Z,3.39
2017-12-01T20:08:15.025Z,3.37
2017-12-01T20:10:43.221Z,3.34
2017-12-01T20:13:10.865Z,3.33
2017-12-01T20:15:38.473Z,3.27
2017-12-01T20:18:06.215Z,3.25
2017-12-01T20:20:40.262Z,3.26
2017-12-01T20:23:08.143Z,3.26
2017-12-01T20:25:35.901Z,3.20
2017-12-01T20:28:05.336Z,3.15
2017-12-01T20:30:34.251Z,3.17
2017-12-01T20:33:03.369Z,3.10
2017-12-01T20:41:14.614Z,2.97
2017-12-01T20:43:43.455Z,2.97
2017-12-01T20:46:20.833Z,2.98
2017-12-01T20:51:32.763Z,2.99
2017-12-01T20:54:07.534Z,2.98
2017-12-01T20:56:37.941Z,2.92
2017-12-01T20:59:06.914Z,2.89
2017-12-01T21:01:39.501Z,2.90
2017-12-01T21:04:09.519Z,2.84
2017-12-01T21:09:10.944Z,2.80
2017-12-01T21:11:41.066Z,2.81
2017-12-01T21:19:40.782Z,2.78
2017-12-01T21:24:46.641Z,2.75
2017-12-01T21:29:49.675Z,2.71
2017-12-01T21:32:18.945Z,2.69
2017-12-01T21:34:51.861Z,2.68
2017-12-01T21:39:58.384Z,2.65
2017-12-01T21:42:29.846Z,2.62
2017-12-01T21:44:58.866Z,2.59
2017-12-01T21:53:19.022Z,2.48
2017-12-01T21:55:46.728Z,2.52
2017-12-01T21:58:15.044Z,2.50
2017-12-01T22:00:44.905Z,2.48
2017-12-01T22:03:12.722Z,2.48
2017-12-01T22:05:41.190Z,2.50
2017-12-01T22:08:08.822Z,2.45
2017-12-01T22:10:37.582Z,2.47
2017-12-01T22:13:05.137Z,2.42
2017-12-01T22:15:33.753Z,2.46
2017-12-01T22:18:01.559Z,2.41
2017-12-01T22:20:29.326Z,2.39
2017-12-01T22:22:56.816Z,2.39
2017-12-01T22:25:24.264Z,2.38
2017-12-01T22:28:17.259Z,2.40
2017-12-01T22:30:44.717Z,2.39
2017-12-01T22:33:12.279Z,2.40
2017-12-01T22:35:40.744Z,2.43
2017-12-01T22:38:09.442Z,2.46
2017-12-01T22:40:37.975Z,2.47
2017-12-01T22:43:06.137Z,2.48
2017-12-01T22:45:33.847Z,2.52
2017-12-01T22:48:15.552Z,2.50
2017-12-01T22:50:43.240Z,2.48
2017-12-01T22:53:10.764Z,2.45
2017-12-01T22:55:38.262Z,2.41
2017-12-01T22:58:10.800Z,2.36
2017-12-01T23:00:38.321Z,2.29
2017-12-01T23:03:06.591Z,2.30
2017-12-01T23:05:34.614Z,2.28
2017-12-01T23:08:07.437Z,2.25
2017-12-01T23:10:35.184Z,2.23
2017-12-01T23:13:02.678Z,2.20
2017-12-01T23:15:30.176Z,2.16
2017-12-01T23:17:57.631Z,2.15
2017-12-01T23:20:25.374Z,2.12
2017-12-01T23:22:53.062Z,2.09
2017-12-01T23:25:21.348Z,2.08
2017-12-01T23:27:49.231Z,2.11
2017-12-01T23:30:17.005Z,2.12
2017-12-01T23:32:45.220Z,2.10
2017-12-01T23:35:12.915Z,2.08
2017-12-01T23:37:40.712Z,2.09
2017-12-01T23:40:08.474Z,2.06
2017-12-01T23:42:36.904Z,1.89
2017-12-01T23:45:04.828Z,1.88
2017-12-01T23:47:32.274Z,1.89
2017-12-01T23:49:59.954Z,1.90
2017-12-01T23:52:28.501Z,1.94
2017-12-01T23:54:56.017Z,1.92
2017-12-01T23:57:23.641Z,1.93
2017-12-01T23:59:51.344Z,1.96
